Аэропорт: Гостомель. Киев

ICAO: UKKM

METAR:
2019/05/26 14:00
UKKM 261400Z AUTO 29007G12MPS 270V330 9999 // NCD 22/06 Q1011
METAR:
2019/05/25 12:15
TAF UKKM 251109Z 2512/2612 33004G09MPS 9999 BKN030 
      TEMPO 2512/2520 VRB09G14MPS 1400 TSRAGR BKN007 BKN025CB 
      TEMPO 2520/2605 2100 BR BKN007 
      BECMG 2605/2607 27005G10MPS